Metar z połowy godziny Komunikat METAR ze strony awiacja.imgw.pl Metar Mil EPMI METAR EPMI 230800Z 27010KT 9999 BKN017 07/02 Q1020 RMK 066 074 6/6=